Time;durP1;ratioP1;P1;durP2;ratioP2;P2;SDS_P1;SDS_P2;PMS_P1;PMS_P2;Temp;Humidity;BMP_temperature;BMP_pressure;BME280_temperature;BME280_humidity;BME280_pressure;Samples;Min_cycle;Max_cycle;Signal;HPM_P1;HPM_P2
2022/04/11 00:01:33;;;;;;;;;;;22.40;50.30;;;;;;5093707;28;952;-34
2022/04/11 00:03:59;;;;;;;;;;;22.40;50.30;;;;;;5092874;28;873;-35
2022/04/11 00:06:27;;;;;;;;;;;22.40;50.20;;;;;;5092384;28;1019;-35
2022/04/11 00:08:54;;;;;;;;;;;22.40;51.40;;;;;;5092477;28;1914;-34
2022/04/11 00:11:20;;;;;;;;;;;22.40;50.30;;;;;;5091993;28;1004;-34
2022/04/11 00:13:47;;;;;;;;;;;22.40;50.30;;;;;;5092835;28;865;-37
2022/04/11 00:16:14;;;;;;;;;;;22.40;50.20;;;;;;5093073;28;1000;-36
2022/04/11 00:18:41;;;;;;;;;;;22.40;50.20;;;;;;5092295;28;1166;-36
2022/04/11 00:21:08;;;;;;;;;;;22.40;50.30;;;;;;5093478;28;999;-37
2022/04/11 00:23:36;;;;;;;;;;;22.30;50.30;;;;;;5093227;28;975;-36
2022/04/11 00:26:02;;;;;;;;;;;22.30;50.30;;;;;;5094022;28;992;-38
2022/04/11 00:28:29;;;;;;;;;;;22.30;50.20;;;;;;5093576;28;1864;-36
2022/04/11 00:30:56;;;;;;;;;;;22.30;50.30;;;;;;5093479;28;1906;-36
2022/04/11 00:33:23;;;;;;;;;;;22.30;50.30;;;;;;5093838;28;1012;-37
2022/04/11 00:35:49;;;;;;;;;;;22.30;50.20;;;;;;5094065;28;979;-36
2022/04/11 00:38:16;;;;;;;;;;;22.30;50.20;;;;;;5096057;28;1093;-36
2022/04/11 00:40:44;;;;;;;;;;;22.30;50.30;;;;;;5097705;28;992;-36
2022/04/11 00:43:29;;;;;;;;;;;22.30;50.30;;;;;;5098060;28;1119;-36
2022/04/11 00:45:56;;;;;;;;;;;22.30;50.30;;;;;;5098062;28;964;-36
2022/04/11 00:48:23;;;;;;;;;;;22.30;50.30;;;;;;5098150;28;987;-36
2022/04/11 00:50:50;;;;;;;;;;;22.30;50.30;;;;;;5097083;28;1902;-35
2022/04/11 00:53:16;;;;;;;;;;;22.30;50.30;;;;;;5096551;28;928;-38
2022/04/11 00:55:45;;;;;;;;;;;22.30;50.30;;;;;;5095506;28;1329;-36
2022/04/11 00:58:11;;;;;;;;;;;22.30;50.30;;;;;;5095622;28;1759;-36
2022/04/11 01:00:38;;;;;;;;;;;22.30;50.20;;;;;;5095113;28;971;-36
2022/04/11 01:03:05;;;;;;;;;;;22.30;50.20;;;;;;5096321;28;1000;-36
2022/04/11 01:05:32;;;;;;;;;;;22.30;50.20;;;;;;5097245;28;935;-36
2022/04/11 01:08:02;;;;;;;;;;;22.30;50.20;;;;;;5095511;28;1025;-37
2022/04/11 01:10:29;;;;;;;;;;;22.30;50.20;;;;;;5096510;28;1905;-36
2022/04/11 01:12:58;;;;;;;;;;;22.30;50.20;;;;;;5096379;28;981;-36
2022/04/11 01:15:24;;;;;;;;;;;22.30;50.10;;;;;;5094976;28;900;-37
2022/04/11 01:17:51;;;;;;;;;;;22.30;50.20;;;;;;5096051;28;981;-36
2022/04/11 01:20:19;;;;;;;;;;;22.30;50.20;;;;;;5095362;28;968;-36
2022/04/11 01:22:47;;;;;;;;;;;22.30;50.20;;;;;;5095455;28;963;-36
2022/04/11 01:25:14;;;;;;;;;;;22.30;50.20;;;;;;5095318;28;989;-36
2022/04/11 01:27:41;;;;;;;;;;;22.30;50.10;;;;;;5095911;28;1014;-37
2022/04/11 01:30:09;;;;;;;;;;;22.30;50.20;;;;;;5096230;28;1901;-36
2022/04/11 01:32:37;;;;;;;;;;;22.30;50.20;;;;;;5095886;28;975;-36
2022/04/11 01:35:04;;;;;;;;;;;22.20;50.10;;;;;;5096539;28;1030;-35
2022/04/11 01:37:31;;;;;;;;;;;22.30;50.20;;;;;;5095090;28;940;-36
2022/04/11 01:39:59;;;;;;;;;;;22.20;50.10;;;;;;5095695;28;1177;-39
2022/04/11 01:42:26;;;;;;;;;;;22.30;50.10;;;;;;5096216;28;1023;-36
2022/04/11 01:44:53;;;;;;;;;;;22.30;50.10;;;;;;5096349;28;983;-36
2022/04/11 01:47:19;;;;;;;;;;;22.20;50.10;;;;;;5095840;28;993;-36
2022/04/11 01:49:46;;;;;;;;;;;22.20;50.00;;;;;;5093421;28;1910;-36
2022/04/11 01:52:13;;;;;;;;;;;22.20;50.00;;;;;;5095215;28;995;-37
2022/04/11 01:54:39;;;;;;;;;;;22.20;50.10;;;;;;5094716;28;988;-36
2022/04/11 01:57:08;;;;;;;;;;;22.20;50.10;;;;;;5094600;28;972;-36
2022/04/11 01:59:35;;;;;;;;;;;22.20;51.30;;;;;;5096265;28;940;-37
2022/04/11 02:02:01;;;;;;;;;;;22.20;50.10;;;;;;5097172;28;999;-36
2022/04/11 02:04:31;;;;;;;;;;;22.20;50.10;;;;;;5095862;28;1836;-36
2022/04/11 02:06:58;;;;;;;;;;;22.20;50.10;;;;;;5094429;28;1094;-37
2022/04/11 02:09:24;;;;;;;;;;;22.20;50.00;;;;;;5094706;28;1905;-36
2022/04/11 02:11:51;;;;;;;;;;;22.20;50.10;;;;;;5094701;28;1076;-36
2022/04/11 02:14:19;;;;;;;;;;;22.20;50.10;;;;;;5095070;28;762;-38
2022/04/11 02:16:46;;;;;;;;;;;22.20;50.10;;;;;;5094584;28;923;-38
2022/04/11 02:19:13;;;;;;;;;;;22.20;50.10;;;;;;5093646;28;936;-38
2022/04/11 02:21:39;;;;;;;;;;;22.20;50.10;;;;;;5094874;28;941;-38
2022/04/11 02:24:06;;;;;;;;;;;22.20;50.10;;;;;;5094136;28;988;-38
2022/04/11 02:26:33;;;;;;;;;;;22.20;50.10;;;;;;5097247;28;909;-38
2022/04/11 02:29:00;;;;;;;;;;;22.10;50.10;;;;;;5094305;28;987;-38
2022/04/11 02:31:28;;;;;;;;;;;22.10;50.10;;;;;;5094715;28;1898;-39
2022/04/11 02:33:55;;;;;;;;;;;22.10;50.10;;;;;;5094699;28;935;-37
2022/04/11 02:36:21;;;;;;;;;;;22.10;50.10;;;;;;5095578;28;885;-38
2022/04/11 02:38:48;;;;;;;;;;;22.10;50.10;;;;;;5095164;28;1060;-38
2022/04/11 02:41:17;;;;;;;;;;;22.10;50.20;;;;;;5095594;28;967;-39
2022/04/11 02:43:44;;;;;;;;;;;22.10;50.20;;;;;;5094537;28;988;-39
2022/04/11 02:46:11;;;;;;;;;;;22.10;50.20;;;;;;5093572;28;842;-37
2022/04/11 02:48:39;;;;;;;;;;;22.10;50.20;;;;;;5094249;28;993;-37
2022/04/11 02:51:07;;;;;;;;;;;22.10;50.20;;;;;;5094242;28;1989;-37
2022/04/11 02:53:33;;;;;;;;;;;22.10;50.20;;;;;;5093983;28;1093;-38
2022/04/11 02:56:00;;;;;;;;;;;22.00;50.10;;;;;;5092889;28;928;-37
2022/04/11 02:58:27;;;;;;;;;;;22.10;50.10;;;;;;5094296;28;1014;-38
2022/04/11 03:00:53;;;;;;;;;;;22.10;50.10;;;;;;5092339;28;936;-38
2022/04/11 03:03:21;;;;;;;;;;;22.00;50.10;;;;;;5093556;28;923;-37
2022/04/11 03:05:50;;;;;;;;;;;22.10;50.20;;;;;;5093867;28;1003;-37
2022/04/11 03:08:16;;;;;;;;;;;22.00;50.10;;;;;;5093501;28;1009;-39
2022/04/11 03:10:43;;;;;;;;;;;22.10;50.10;;;;;;5093119;28;1902;-37
2022/04/11 03:13:10;;;;;;;;;;;22.10;50.00;;;;;;5093980;28;1016;-37
2022/04/11 03:15:36;;;;;;;;;;;22.10;50.10;;;;;;5094053;28;1009;-38
2022/04/11 03:18:03;;;;;;;;;;;22.00;50.10;;;;;;5094697;28;1070;-38
2022/04/11 03:20:30;;;;;;;;;;;22.00;50.00;;;;;;5094866;28;984;-39
2022/04/11 03:22:58;;;;;;;;;;;22.00;50.10;;;;;;5094110;28;1044;-38
2022/04/11 03:25:25;;;;;;;;;;;22.00;50.10;;;;;;5092900;28;969;-38
2022/04/11 03:27:52;;;;;;;;;;;22.00;50.10;;;;;;5094525;28;1003;-38
2022/04/11 03:30:19;;;;;;;;;;;22.00;50.10;;;;;;5093587;28;1905;-39
2022/04/11 03:32:45;;;;;;;;;;;22.00;50.20;;;;;;5094107;28;956;-39
2022/04/11 03:35:12;;;;;;;;;;;22.00;50.10;;;;;;5094306;28;976;-37
2022/04/11 03:37:39;;;;;;;;;;;22.10;50.00;;;;;;5094095;28;916;-38
2022/04/11 03:40:08;;;;;;;;;;;22.00;50.00;;;;;;5092865;28;1035;-37
2022/04/11 03:42:35;;;;;;;;;;;22.00;50.10;;;;;;5092549;28;903;-37
2022/04/11 03:45:02;;;;;;;;;;;22.00;50.10;;;;;;5092934;28;948;-37
2022/04/11 03:47:29;;;;;;;;;;;22.00;50.10;;;;;;5093501;28;930;-38
2022/04/11 03:49:55;;;;;;;;;;;22.00;50.10;;;;;;5091751;28;968;-38
2022/04/11 03:52:22;;;;;;;;;;;22.00;50.00;;;;;;5092683;28;991;-39
2022/04/11 03:54:49;;;;;;;;;;;22.00;50.10;;;;;;5091696;28;939;-37
2022/04/11 03:57:17;;;;;;;;;;;22.00;50.10;;;;;;5091725;28;991;-37
2022/04/11 03:59:44;;;;;;;;;;;22.00;50.10;;;;;;5091276;28;963;-37
2022/04/11 04:02:11;;;;;;;;;;;21.90;50.10;;;;;;5092446;28;942;-38
2022/04/11 04:04:38;;;;;;;;;;;21.90;50.10;;;;;;5093109;28;932;-37
2022/04/11 04:07:05;;;;;;;;;;;21.90;50.10;;;;;;5091847;28;953;-38
2022/04/11 04:09:31;;;;;;;;;;;21.90;50.10;;;;;;5091896;28;961;-38
2022/04/11 04:11:58;;;;;;;;;;;21.90;50.10;;;;;;5091155;28;1905;-39
2022/04/11 04:14:26;;;;;;;;;;;21.90;50.10;;;;;;5095221;28;944;-38
2022/04/11 04:16:53;;;;;;;;;;;21.90;50.10;;;;;;5095746;28;975;-38
2022/04/11 04:19:20;;;;;;;;;;;21.90;50.10;;;;;;5096486;28;919;-37
2022/04/11 04:21:46;;;;;;;;;;;21.90;50.00;;;;;;5096589;28;929;-37
2022/04/11 04:24:13;;;;;;;;;;;21.90;50.00;;;;;;5096490;28;1230;-39
2022/04/11 04:26:40;;;;;;;;;;;21.90;50.10;;;;;;5095991;28;1013;-39
2022/04/11 04:29:07;;;;;;;;;;;21.90;50.10;;;;;;5095023;28;956;-37
2022/04/11 04:31:35;;;;;;;;;;;21.90;50.00;;;;;;5097075;28;1913;-38
2022/04/11 04:34:01;;;;;;;;;;;21.90;50.10;;;;;;5096281;28;1008;-37
2022/04/11 04:36:28;;;;;;;;;;;21.90;50.10;;;;;;5095371;28;939;-37
2022/04/11 04:38:55;;;;;;;;;;;21.90;50.20;;;;;;5095631;28;1247;-37
2022/04/11 04:41:21;;;;;;;;;;;21.80;50.10;;;;;;5094292;28;1077;-37
2022/04/11 04:43:48;;;;;;;;;;;21.80;50.10;;;;;;5094386;28;698;-38
2022/04/11 04:46:15;;;;;;;;;;;21.90;50.10;;;;;;5094544;28;968;-37
2022/04/11 04:48:43;;;;;;;;;;;21.80;50.20;;;;;;5095481;28;1005;-37
2022/04/11 04:51:10;;;;;;;;;;;21.90;50.10;;;;;;5094751;28;1991;-38
2022/04/11 04:53:37;;;;;;;;;;;21.80;50.00;;;;;;5095697;28;1242;-38
2022/04/11 04:56:04;;;;;;;;;;;21.90;50.00;;;;;;5094169;28;984;-38
2022/04/11 04:58:31;;;;;;;;;;;21.90;50.00;;;;;;5093460;28;972;-39
2022/04/11 05:00:57;;;;;;;;;;;21.90;49.90;;;;;;5093649;28;1012;-39
2022/04/11 05:03:24;;;;;;;;;;;21.90;49.90;;;;;;5093952;28;988;-38
2022/04/11 05:05:54;;;;;;;;;;;21.90;50.00;;;;;;5094753;28;968;-38
2022/04/11 05:08:21;;;;;;;;;;;21.90;50.00;;;;;;5093751;28;1412;-37
2022/04/11 05:10:48;;;;;;;;;;;21.90;50.10;;;;;;5093570;28;1902;-38
2022/04/11 05:13:14;;;;;;;;;;;21.90;50.10;;;;;;5093097;28;1011;-38
2022/04/11 05:15:42;;;;;;;;;;;22.00;50.00;;;;;;5092908;28;869;-37
2022/04/11 05:18:09;;;;;;;;;;;22.00;50.00;;;;;;5092720;28;903;-38
2022/04/11 05:20:36;;;;;;;;;;;22.00;50.00;;;;;;5094317;28;1069;-37
2022/04/11 05:23:04;;;;;;;;;;;21.90;50.00;;;;;;5093972;28;1015;-37
2022/04/11 05:25:30;;;;;;;;;;;21.90;50.00;;;;;;5094647;28;959;-38
2022/04/11 05:27:57;;;;;;;;;;;21.90;50.00;;;;;;5095119;28;968;-38
2022/04/11 05:30:24;;;;;;;;;;;21.90;50.10;;;;;;5093062;28;1094;-39
2022/04/11 05:32:51;;;;;;;;;;;21.90;50.10;;;;;;5092950;28;1905;-37
2022/04/11 05:35:18;;;;;;;;;;;21.90;50.10;;;;;;5092933;28;884;-38
2022/04/11 05:37:45;;;;;;;;;;;21.90;50.10;;;;;;5092426;28;1289;-37
2022/04/11 05:40:13;;;;;;;;;;;21.90;50.10;;;;;;5091438;28;940;-41
2022/04/11 05:42:39;;;;;;;;;;;21.90;50.10;;;;;;5093092;28;1025;-37
2022/04/11 05:45:07;;;;;;;;;;;21.90;50.10;;;;;;5093380;28;1014;-37
2022/04/11 05:47:33;;;;;;;;;;;21.90;50.00;;;;;;5090560;28;929;-44
2022/04/11 05:50:00;;;;;;;;;;;21.90;50.00;;;;;;5091600;28;1005;-35
2022/04/11 05:52:27;;;;;;;;;;;21.90;50.00;;;;;;5090903;28;1980;-36
2022/04/11 05:54:54;;;;;;;;;;;21.90;50.00;;;;;;5090269;28;1036;-41
2022/04/11 05:57:22;;;;;;;;;;;22.00;50.10;;;;;;5088814;28;1041;-35
2022/04/11 05:59:49;;;;;;;;;;;22.00;50.00;;;;;;5089274;28;896;-35
2022/04/11 06:02:16;;;;;;;;;;;22.00;50.00;;;;;;5090304;28;1015;-37
2022/04/11 06:04:42;;;;;;;;;;;21.90;50.10;;;;;;5090895;28;964;-41
2022/04/11 06:07:09;;;;;;;;;;;22.00;50.10;;;;;;5090563;28;885;-36
2022/04/11 06:09:36;;;;;;;;;;;21.90;50.10;;;;;;5090682;28;936;-37
2022/04/11 06:12:03;;;;;;;;;;;21.90;50.10;;;;;;5090246;28;1987;-36
2022/04/11 06:14:31;;;;;;;;;;;22.00;50.10;;;;;;5091621;28;983;-37
2022/04/11 06:16:58;;;;;;;;;;;22.00;50.10;;;;;;5091342;28;1011;-37
2022/04/11 06:19:24;;;;;;;;;;;22.00;50.10;;;;;;5091969;28;1018;-36
2022/04/11 06:21:51;;;;;;;;;;;22.10;49.90;;;;;;5090730;28;896;-39
2022/04/11 06:24:18;;;;;;;;;;;22.20;50.00;;;;;;5092182;28;1256;-38
2022/04/11 06:26:45;;;;;;;;;;;22.10;49.70;;;;;;5090479;28;983;-44
2022/04/11 06:29:12;;;;;;;;;;;22.10;49.80;;;;;;5090113;28;980;-44
2022/04/11 06:31:40;;;;;;;;;;;22.10;49.80;;;;;;5090248;28;1967;-38
2022/04/11 06:34:06;;;;;;;;;;;22.10;49.90;;;;;;5090021;28;1548;-44
2022/04/11 06:36:33;;;;;;;;;;;22.10;49.80;;;;;;5089708;28;909;-39
2022/04/11 06:39:00;;;;;;;;;;;22.20;50.10;;;;;;5088896;28;1019;-41
2022/04/11 06:41:27;;;;;;;;;;;22.30;49.90;;;;;;5087624;28;860;-39
2022/04/11 06:43:53;;;;;;;;;;;22.20;49.70;;;;;;5088989;28;935;-40
2022/04/11 06:46:20;;;;;;;;;;;22.20;49.90;;;;;;5088962;28;875;-38
2022/04/11 06:48:48;;;;;;;;;;;22.30;49.80;;;;;;5088888;28;880;-38
2022/04/11 06:51:15;;;;;;;;;;;22.30;49.90;;;;;;5087322;28;1984;-36
2022/04/11 06:53:41;;;;;;;;;;;22.30;49.70;;;;;;5086122;28;1016;-36
2022/04/11 06:56:08;;;;;;;;;;;22.30;49.70;;;;;;5086369;28;912;-38
2022/04/11 06:58:35;;;;;;;;;;;22.20;49.80;;;;;;5087035;28;888;-36
2022/04/11 07:01:02;;;;;;;;;;;22.20;50.00;;;;;;5086460;28;895;-36
2022/04/11 07:03:30;;;;;;;;;;;22.10;50.00;;;;;;5088171;28;1082;-38
2022/04/11 07:05:58;;;;;;;;;;;22.10;50.00;;;;;;5088838;28;988;-38
2022/04/11 07:08:25;;;;;;;;;;;22.10;50.00;;;;;;5087942;28;977;-38
2022/04/11 07:10:52;;;;;;;;;;;22.10;50.00;;;;;;5087448;28;915;-37
2022/04/11 07:13:19;;;;;;;;;;;22.10;50.00;;;;;;5087520;28;1913;-36
2022/04/11 07:15:45;;;;;;;;;;;22.10;50.00;;;;;;5087290;28;948;-36
2022/04/11 07:18:12;;;;;;;;;;;22.10;50.00;;;;;;5088327;28;1000;-36
2022/04/11 07:20:39;;;;;;;;;;;22.10;50.00;;;;;;5087163;28;1014;-36
2022/04/11 07:23:07;;;;;;;;;;;22.10;50.00;;;;;;5087488;28;992;-36
2022/04/11 07:25:34;;;;;;;;;;;22.10;50.00;;;;;;5088488;28;1036;-36
2022/04/11 07:28:01;;;;;;;;;;;22.10;50.00;;;;;;5089914;28;998;-37
2022/04/11 07:30:28;;;;;;;;;;;22.10;50.00;;;;;;5088496;28;987;-36
2022/04/11 07:32:54;;;;;;;;;;;22.10;50.00;;;;;;5087463;28;1914;-36
2022/04/11 07:35:21;;;;;;;;;;;22.10;50.00;;;;;;5089542;28;996;-36
2022/04/11 07:37:48;;;;;;;;;;;22.10;50.10;;;;;;5087612;28;1007;-36
2022/04/11 07:40:16;;;;;;;;;;;22.10;50.00;;;;;;5086933;28;977;-36
2022/04/11 07:42:43;;;;;;;;;;;22.10;50.00;;;;;;5086096;28;1023;-36
2022/04/11 07:45:10;;;;;;;;;;;22.10;50.00;;;;;;5088351;28;953;-36
2022/04/11 07:47:37;;;;;;;;;;;22.00;49.90;;;;;;5085403;28;1025;-36
2022/04/11 07:50:04;;;;;;;;;;;22.10;50.00;;;;;;5086840;28;983;-36
2022/04/11 07:52:31;;;;;;;;;;;22.10;50.00;;;;;;5086845;28;1969;-39
2022/04/11 07:54:58;;;;;;;;;;;22.10;49.90;;;;;;5086546;28;984;-40
2022/04/11 07:57:26;;;;;;;;;;;22.00;49.90;;;;;;5086768;28;1154;-39
2022/04/11 07:59:53;;;;;;;;;;;22.10;49.90;;;;;;5087370;28;862;-39
2022/04/11 08:02:24;;;;;;;;;;;22.10;49.90;;;;;;5086604;28;985;-38
2022/04/11 08:04:51;;;;;;;;;;;22.10;49.90;;;;;;5087731;28;984;-36
2022/04/11 08:07:17;;;;;;;;;;;22.10;49.90;;;;;;5087291;28;952;-37
2022/04/11 08:09:44;;;;;;;;;;;22.10;49.90;;;;;;5086536;28;877;-37
2022/04/11 08:12:11;;;;;;;;;;;22.10;49.90;;;;;;5085871;28;1942;-38
2022/04/11 08:14:39;;;;;;;;;;;22.10;49.90;;;;;;5084514;28;1587;-37
2022/04/11 08:17:06;;;;;;;;;;;22.10;49.90;;;;;;5086768;28;931;-38
2022/04/11 08:19:32;;;;;;;;;;;22.10;49.90;;;;;;5087501;28;932;-38
2022/04/11 08:21:59;;;;;;;;;;;22.10;49.90;;;;;;5086156;28;996;-41
2022/04/11 08:24:26;;;;;;;;;;;22.10;49.90;;;;;;5086265;28;1004;-37
2022/04/11 08:26:53;;;;;;;;;;;22.10;49.90;;;;;;5085796;28;984;-39
2022/04/11 08:29:20;;;;;;;;;;;22.10;49.90;;;;;;5086165;28;829;-38
2022/04/11 08:31:48;;;;;;;;;;;22.10;49.80;;;;;;5085652;28;1984;-37
2022/04/11 08:34:15;;;;;;;;;;;22.10;49.90;;;;;;5086720;28;976;-38
2022/04/11 08:36:43;;;;;;;;;;;22.10;49.90;;;;;;5087944;28;885;-39
2022/04/11 08:39:10;;;;;;;;;;;22.10;49.90;;;;;;5087348;28;989;-39
2022/04/11 08:41:37;;;;;;;;;;;22.10;51.00;;;;;;5086056;28;997;-37
2022/04/11 08:44:05;;;;;;;;;;;22.10;49.80;;;;;;5086347;28;972;-38
2022/04/11 08:46:32;;;;;;;;;;;22.10;49.80;;;;;;5087398;28;964;-38
2022/04/11 08:49:01;;;;;;;;;;;22.10;49.90;;;;;;5087333;28;995;-38
2022/04/11 08:51:30;;;;;;;;;;;22.10;49.90;;;;;;5087116;28;900;-38
2022/04/11 08:53:57;;;;;;;;;;;22.10;49.80;;;;;;5086026;28;1910;-36
2022/04/11 08:56:24;;;;;;;;;;;22.10;49.80;;;;;;5089309;28;1247;-39
2022/04/11 08:58:50;;;;;;;;;;;22.10;49.80;;;;;;5090351;28;1153;-37
2022/04/11 09:01:17;;;;;;;;;;;22.10;49.80;;;;;;5090815;28;947;-37
2022/04/11 09:03:44;;;;;;;;;;;22.10;49.80;;;;;;5088356;28;1048;-38
2022/04/11 09:06:14;;;;;;;;;;;22.10;49.60;;;;;;5089860;28;952;-37
2022/04/11 09:08:42;;;;;;;;;;;22.10;49.70;;;;;;5089392;28;1044;-38
2022/04/11 09:11:09;;;;;;;;;;;22.10;49.60;;;;;;5089746;28;1225;-38
2022/04/11 09:13:49;;;;;;;;;;;22.10;49.70;;;;;;5088633;28;1993;-37
2022/04/11 09:16:16;;;;;;;;;;;22.10;49.60;;;;;;5089140;28;951;-37
2022/04/11 09:18:47;;;;;;;;;;;22.10;49.60;;;;;;5090913;28;1013;-40
2022/04/11 09:21:16;;;;;;;;;;;22.20;49.70;;;;;;5087842;28;861;-37
2022/04/11 09:23:43;;;;;;;;;;;22.10;49.60;;;;;;5089116;28;1033;-36
2022/04/11 09:26:20;;;;;;;;;;;22.10;49.60;;;;;;5089696;28;834;-37
2022/04/11 09:29:00;;;;;;;;;;;22.10;49.50;;;;;;5089789;28;893;-36
2022/04/11 09:31:27;;;;;;;;;;;22.10;49.50;;;;;;5089499;28;1369;-37
2022/04/11 09:33:53;;;;;;;;;;;22.10;49.60;;;;;;5088148;28;1897;-36
2022/04/11 09:36:21;;;;;;;;;;;22.10;49.50;;;;;;5088973;28;907;-36
2022/04/11 09:38:57;;;;;;;;;;;22.10;49.50;;;;;;5088920;28;1133;-36
2022/04/11 09:41:27;;;;;;;;;;;22.10;49.50;;;;;;5089582;28;1011;-36
2022/04/11 09:43:53;;;;;;;;;;;22.10;49.60;;;;;;5090358;28;944;-36
2022/04/11 09:46:20;;;;;;;;;;;22.10;49.50;;;;;;5088848;28;948;-36
2022/04/11 09:48:47;;;;;;;;;;;22.20;49.50;;;;;;5088019;28;893;-35
2022/04/11 09:51:14;;;;;;;;;;;22.10;49.50;;;;;;5087994;28;945;-37
2022/04/11 09:53:43;;;;;;;;;;;22.20;49.50;;;;;;5088726;28;1902;-36
2022/04/11 09:56:10;;;;;;;;;;;22.20;49.50;;;;;;5087381;28;940;-37
2022/04/11 09:58:39;;;;;;;;;;;22.10;49.40;;;;;;5089159;28;1012;-36
2022/04/11 10:01:06;;;;;;;;;;;22.20;49.50;;;;;;5088928;28;921;-36
2022/04/11 10:03:33;;;;;;;;;;;22.20;49.50;;;;;;5088335;28;1024;-37
2022/04/11 10:06:00;;;;;;;;;;;22.20;49.50;;;;;;5090059;28;919;-37
2022/04/11 10:08:27;;;;;;;;;;;22.20;49.40;;;;;;5087851;28;1005;-36
2022/04/11 10:10:56;;;;;;;;;;;22.10;49.40;;;;;;5086462;28;901;-38
2022/04/11 10:13:24;;;;;;;;;;;22.20;49.40;;;;;;5088670;28;1910;-36
2022/04/11 10:15:51;;;;;;;;;;;22.10;49.40;;;;;;5089015;28;1007;-40
2022/04/11 10:18:19;;;;;;;;;;;22.10;49.40;;;;;;5087959;28;999;-39
2022/04/11 10:20:49;;;;;;;;;;;22.10;49.30;;;;;;5087735;28;988;-38
2022/04/11 10:23:19;;;;;;;;;;;22.20;49.40;;;;;;5087885;28;1016;-38
2022/04/11 10:25:47;;;;;;;;;;;22.10;49.40;;;;;;5087983;28;1014;-38
2022/04/11 10:28:22;;;;;;;;;;;22.10;49.40;;;;;;5086840;28;892;-39
2022/04/11 10:31:04;;;;;;;;;;;22.10;49.40;;;;;;5086079;28;857;-39
2022/04/11 10:33:48;;;;;;;;;;;22.10;49.40;;;;;;5084446;28;1980;-38
2022/04/11 10:36:35;;;;;;;;;;;22.10;49.40;;;;;;5088472;28;1268;-37
2022/04/11 10:39:24;;;;;;;;;;;22.20;49.50;;;;;;5089270;28;1114;-40
2022/04/11 10:42:10;;;;;;;;;;;22.20;49.40;;;;;;5083218;28;1221;-39
2022/04/11 10:44:40;;;;;;;;;;;22.20;49.40;;;;;;5089230;28;1536;-38
2022/04/11 10:47:31;;;;;;;;;;;22.20;49.40;;;;;;5091078;28;1627;-41
2022/04/11 10:50:16;;;;;;;;;;;22.20;49.40;;;;;;5080009;28;1237;-38
2022/04/11 10:52:43;;;;;;;;;;;22.20;49.40;;;;;;5089391;28;1978;-40
2022/04/11 10:55:11;;;;;;;;;;;22.10;49.40;;;;;;5087992;28;1018;-38
2022/04/11 10:57:38;;;;;;;;;;;22.10;49.30;;;;;;5088484;28;1001;-40
2022/04/11 11:00:08;;;;;;;;;;;22.10;49.50;;;;;;5088825;28;980;-40
2022/04/11 11:02:53;;;;;;;;;;;22.10;49.50;;;;;;5087617;28;920;-38
2022/04/11 11:05:23;;;;;;;;;;;22.10;49.50;;;;;;5087917;28;1020;-38
2022/04/11 11:07:50;;;;;;;;;;;22.10;49.40;;;;;;5088581;28;928;-38
2022/04/11 11:10:27;;;;;;;;;;;22.10;49.50;;;;;;5087525;28;936;-38
2022/04/11 11:13:13;;;;;;;;;;;22.10;49.40;;;;;;5089013;28;1984;-39
2022/04/11 11:15:42;;;;;;;;;;;22.20;49.30;;;;;;5088684;28;1391;-38
2022/04/11 11:18:08;;;;;;;;;;;22.20;49.40;;;;;;5089317;28;886;-37
2022/04/11 11:20:48;;;;;;;;;;;22.10;49.40;;;;;;5087652;28;995;-38
2022/04/11 11:23:16;;;;;;;;;;;22.10;49.50;;;;;;5087485;28;932;-38
2022/04/11 11:25:43;;;;;;;;;;;22.10;49.50;;;;;;5087450;28;854;-40
2022/04/11 11:28:12;;;;;;;;;;;22.10;49.40;;;;;;5086523;28;948;-41
2022/04/11 11:30:38;;;;;;;;;;;22.10;49.30;;;;;;5089267;28;943;-38
2022/04/11 11:33:08;;;;;;;;;;;22.10;49.30;;;;;;5086646;28;1906;-39
2022/04/11 11:35:34;;;;;;;;;;;22.10;49.40;;;;;;5088815;28;948;-37
2022/04/11 11:38:04;;;;;;;;;;;22.20;49.40;;;;;;5087173;28;1039;-36
2022/04/11 11:40:33;;;;;;;;;;;22.10;49.40;;;;;;5086833;28;901;-37
2022/04/11 11:42:59;;;;;;;;;;;22.10;49.40;;;;;;5085305;28;1023;-37
2022/04/11 11:45:27;;;;;;;;;;;22.20;49.40;;;;;;5086381;28;955;-38
2022/04/11 11:47:53;;;;;;;;;;;22.10;49.30;;;;;;5088017;28;962;-36
2022/04/11 11:50:21;;;;;;;;;;;22.10;49.30;;;;;;5088029;28;1007;-36
2022/04/11 11:52:56;;;;;;;;;;;22.10;49.30;;;;;;5087967;28;1905;-35
2022/04/11 11:55:23;;;;;;;;;;;22.20;49.40;;;;;;5088514;28;909;-36
2022/04/11 11:58:03;;;;;;;;;;;22.20;49.30;;;;;;5085471;28;1000;-38
2022/04/11 12:00:33;;;;;;;;;;;22.20;49.30;;;;;;5086653;28;920;-36
2022/04/11 12:05:46;;;;;;;;;;;22.20;49.30;;;;;;5087877;28;767;-37
2022/04/11 12:08:14;;;;;;;;;;;22.20;49.30;;;;;;5087613;28;895;-36
2022/04/11 12:10:41;;;;;;;;;;;22.20;49.40;;;;;;5086827;28;984;-36
2022/04/11 12:13:08;;;;;;;;;;;22.20;49.40;;;;;;5085772;28;1972;-37
2022/04/11 12:15:35;;;;;;;;;;;22.20;49.30;;;;;;5087305;28;940;-37
2022/04/11 12:18:04;;;;;;;;;;;22.20;49.40;;;;;;5086158;28;900;-37
2022/04/11 12:20:32;;;;;;;;;;;22.20;49.40;;;;;;5086151;28;818;-36
2022/04/11 12:23:03;;;;;;;;;;;22.20;49.30;;;;;;5085997;28;1016;-36
2022/04/11 12:25:31;;;;;;;;;;;22.20;49.30;;;;;;5086032;28;1005;-36
2022/04/11 12:28:11;;;;;;;;;;;22.20;49.40;;;;;;5087231;28;897;-36
2022/04/11 12:30:39;;;;;;;;;;;22.20;49.40;;;;;;5085299;28;928;-37
2022/04/11 12:33:06;;;;;;;;;;;22.20;49.40;;;;;;5088189;28;1898;-36
2022/04/11 12:35:35;;;;;;;;;;;22.20;49.40;;;;;;5091018;28;1437;-37
2022/04/11 12:38:07;;;;;;;;;;;22.20;49.40;;;;;;5091805;28;1059;-38
2022/04/11 12:40:44;;;;;;;;;;;22.20;49.40;;;;;;5091549;28;837;-36
2022/04/11 12:43:11;;;;;;;;;;;22.20;49.20;;;;;;5091994;28;1031;-37
2022/04/11 12:45:38;;;;;;;;;;;22.20;49.30;;;;;;5091082;28;1012;-36
2022/04/11 12:48:05;;;;;;;;;;;22.20;49.40;;;;;;5089959;28;1014;-37
2022/04/11 12:50:33;;;;;;;;;;;22.20;49.40;;;;;;5089953;28;1000;-36
2022/04/11 12:53:00;;;;;;;;;;;22.20;49.40;;;;;;5090156;28;1913;-36
2022/04/11 12:55:29;;;;;;;;;;;22.20;49.20;;;;;;5090203;28;952;-37
2022/04/11 12:57:59;;;;;;;;;;;22.20;49.30;;;;;;5090571;28;944;-37
2022/04/11 13:00:27;;;;;;;;;;;22.20;49.40;;;;;;5089891;28;873;-37
2022/04/11 13:02:56;;;;;;;;;;;22.20;49.30;;;;;;5089355;28;989;-38
2022/04/11 13:05:23;;;;;;;;;;;22.20;49.40;;;;;;5089246;28;1039;-37
2022/04/11 13:07:50;;;;;;;;;;;22.20;49.30;;;;;;5089777;28;972;-38
2022/04/11 13:10:18;;;;;;;;;;;22.20;49.40;;;;;;5089655;28;876;-38
2022/04/11 13:12:46;;;;;;;;;;;22.20;49.20;;;;;;5088357;28;908;-36
2022/04/11 13:15:14;;;;;;;;;;;22.30;49.20;;;;;;5088821;28;1910;-37
2022/04/11 13:20:26;;;;;;;;;;;22.30;49.30;;;;;;5088557;28;673;-36
2022/04/11 13:22:53;;;;;;;;;;;22.30;49.30;;;;;;5089332;28;988;-37
2022/04/11 13:25:20;;;;;;;;;;;22.30;49.30;;;;;;5089927;28;838;-36
2022/04/11 13:27:49;;;;;;;;;;;22.30;49.20;;;;;;5088820;28;998;-36
2022/04/11 13:30:15;;;;;;;;;;;22.30;49.20;;;;;;5089882;28;701;-36
2022/04/11 13:32:42;;;;;;;;;;;22.30;49.20;;;;;;5087806;28;988;-36
2022/04/11 13:35:10;;;;;;;;;;;22.40;49.20;;;;;;5088576;28;1906;-36
2022/04/11 13:37:36;;;;;;;;;;;22.40;49.30;;;;;;5088624;28;936;-37
2022/04/11 13:40:03;;;;;;;;;;;22.30;49.20;;;;;;5087929;28;1214;-39
2022/04/11 13:42:30;;;;;;;;;;;22.40;49.20;;;;;;5089275;28;1012;-36
2022/04/11 13:44:58;;;;;;;;;;;22.40;49.10;;;;;;5087440;28;1070;-37
2022/04/11 13:47:27;;;;;;;;;;;22.40;49.00;;;;;;5089006;28;872;-37
2022/04/11 13:49:53;;;;;;;;;;;22.50;49.00;;;;;;5089274;28;988;-36
2022/04/11 13:52:21;;;;;;;;;;;22.50;49.00;;;;;;5089196;28;1021;-36
2022/04/11 13:54:48;;;;;;;;;;;22.50;49.10;;;;;;5088244;28;1978;-37
2022/04/11 13:57:15;;;;;;;;;;;22.50;49.00;;;;;;5088440;28;1039;-37
2022/04/11 13:59:42;;;;;;;;;;;22.60;49.10;;;;;;5089766;28;849;-37
2022/04/11 14:02:11;;;;;;;;;;;22.60;49.00;;;;;;5088332;28;972;-37
2022/04/11 14:04:38;;;;;;;;;;;22.50;48.90;;;;;;5088722;28;1659;-36
2022/04/11 14:07:05;;;;;;;;;;;22.60;48.80;;;;;;5089961;28;956;-36
2022/04/11 14:09:32;;;;;;;;;;;22.70;48.80;;;;;;5088618;28;881;-36
2022/04/11 14:11:59;;;;;;;;;;;22.70;48.70;;;;;;5088531;28;1458;-37
2022/04/11 14:14:27;;;;;;;;;;;22.60;48.70;;;;;;5089301;28;1977;-37
2022/04/11 14:16:54;;;;;;;;;;;22.70;48.60;;;;;;5091221;28;1473;-37
2022/04/11 14:19:22;;;;;;;;;;;22.80;48.60;;;;;;5091688;28;1620;-36
2022/04/11 14:21:49;;;;;;;;;;;22.70;48.60;;;;;;5090710;28;1684;-36
2022/04/11 14:24:15;;;;;;;;;;;22.70;48.60;;;;;;5087547;28;1566;-37
2022/04/11 14:26:43;;;;;;;;;;;22.80;48.50;;;;;;5091349;28;1039;-38
2022/04/11 14:29:10;;;;;;;;;;;22.80;48.40;;;;;;5088424;28;908;-38
2022/04/11 14:31:37;;;;;;;;;;;22.80;48.50;;;;;;5086577;28;993;-36
2022/04/11 14:34:03;;;;;;;;;;;22.80;48.50;;;;;;5087536;28;1973;-37
2022/04/11 14:36:32;;;;;;;;;;;22.80;48.50;;;;;;5086632;28;899;-38
2022/04/11 14:39:00;;;;;;;;;;;22.90;48.50;;;;;;5087118;28;1034;-36
2022/04/11 14:41:26;;;;;;;;;;;22.90;48.50;;;;;;5087653;28;984;-37
2022/04/11 14:43:53;;;;;;;;;;;22.90;48.50;;;;;;5088990;28;1008;-37
2022/04/11 14:46:20;;;;;;;;;;;22.90;48.50;;;;;;5087670;28;980;-37